Terminal Aerodrome Forecast
Issued by NWS

Home | Current Version | Previous Version | Text Only | Print | Product List | Glossary On
Versions: 1 2 3 4 5 6 7 8 9 10 11 12 13 14 15 16 17 18 19 20 21 22 23 24
723
FTUS43 KMQT 230520
TAFCMX
TAF
KCMX 230520Z 2306/2406 28003KT 1/4SM -DZ FG VV003
     FM231800 27003KT 1/2SM FG OVC003
     FM232100 28003KT 1SM BR OVC003
     FM240400 26003KT 1/2SM FG VV002=

USA.gov is the U.S. government's official web portal to all federal, state and local government web resources and services.